Time;durP1;ratioP1;P1;durP2;ratioP2;P2;SDS_P1;SDS_P2;PMS_P1;PMS_P2;Temp;Humidity;BMP_temperature;BMP_pressure;BME280_temperature;BME280_humidity;BME280_pressure;Samples;Min_cycle;Max_cycle;Signal;HPM_P1;HPM_P2
2022/01/04 05:03:20;;;;;;;19.05;14.77;;;;;;;8.99;76.63;99877.84;5612748;31;77910;-57
2022/01/04 05:06:23;;;;;;;22.23;15.80;;;;;;;8.99;76.63;99877.84;5587758;31;34121;-57
2022/01/04 05:09:25;;;;;;;21.23;14.93;;;;;;;8.56;77.12;99871.53;5592278;31;33566;-57
2022/01/04 05:12:27;;;;;;;19.85;14.63;;;;;;;8.55;77.28;99869.94;5603132;31;33658;-57
2022/01/04 05:15:30;;;;;;;18.92;14.55;;;;;;;8.75;83.17;99864.44;5603420;31;34309;-57
2022/01/04 05:18:32;;;;;;;20.52;14.30;;;;;;;8.76;75.02;99859.88;5603405;31;34294;-57
2022/01/04 05:21:34;;;;;;;19.30;14.48;;;;;;;8.83;74.62;99871.84;5603226;31;33581;-57
2022/01/04 05:24:37;;;;;;;19.08;14.30;;;;;;;8.94;74.10;99869.91;5602365;31;33565;-57
2022/01/04 05:27:39;;;;;;;19.80;14.70;;;;;;;8.93;73.81;99863.72;5603376;31;34150;-58
2022/01/04 05:30:41;;;;;;;18.52;14.73;;;;;;;8.81;73.98;99854.50;5595876;31;34247;-57
2022/01/04 05:33:43;;;;;;;20.25;14.82;;;;;;;8.63;74.93;99853.31;5583311;32;33290;-57
2022/01/04 05:36:46;;;;;;;19.48;14.05;;;;;;;8.66;75.58;99845.53;5583108;31;33655;-57
2022/01/04 05:39:48;;;;;;;21.08;15.15;;;;;;;8.68;76.79;99845.25;5563499;32;33810;-57
2022/01/04 05:42:50;;;;;;;17.65;14.02;;;;;;;8.69;74.38;99844.97;5563829;32;33682;-57
2022/01/04 05:45:53;;;;;;;21.98;14.75;;;;;;;8.78;79.61;99842.50;5563866;32;34375;-57
2022/01/04 05:48:55;;;;;;;19.55;14.52;;;;;;;8.61;74.45;99821.53;5563849;32;34336;-57
2022/01/04 05:51:57;;;;;;;18.17;14.32;;;;;;;8.54;76.18;99821.03;5577142;31;33604;-57
2022/01/04 05:55:00;;;;;;;20.55;15.40;;;;;;;8.60;81.35;99806.56;5578301;31;33788;-57
2022/01/04 05:58:02;;;;;;;20.37;15.07;;;;;;;8.64;75.93;99820.97;5578814;31;33677;-57
2022/01/04 06:01:04;;;;;;;20.58;15.15;;;;;;;8.57;74.82;99817.81;5567693;32;33532;-57
2022/01/04 06:04:10;;;;;;;18.05;14.13;;;;;;;8.50;74.27;99825.34;5572549;32;33573;-57
2022/01/04 06:07:12;;;;;;;20.00;15.38;;;;;;;8.60;75.86;99817.25;5578801;32;33794;-57
2022/01/04 06:10:15;;;;;;;19.42;15.10;;;;;;;8.59;74.07;99807.66;5571299;32;33312;-57
2022/01/04 06:16:39;;;;;;;21.27;15.40;;;;;;;8.64;72.87;99812.13;5569572;32;33586;-58
2022/01/04 06:19:41;;;;;;;20.40;15.52;;;;;;;8.44;73.98;99808.59;5569689;32;33535;-57
2022/01/04 06:22:44;;;;;;;23.08;17.20;;;;;;;8.61;73.29;99808.19;5568416;32;33394;-57
2022/01/04 06:25:47;;;;;;;22.98;17.20;;;;;;;8.45;73.35;99810.16;5550321;32;34253;-57
2022/01/04 06:28:50;;;;;;;24.90;17.37;;;;;;;8.53;72.64;99799.97;5549025;32;33694;-57
2022/01/04 06:31:52;;;;;;;24.23;17.20;;;;;;;8.59;72.29;99796.16;5548972;32;34308;-57
2022/01/04 06:34:55;;;;;;;21.85;17.33;;;;;;;8.60;71.71;99797.75;5569162;32;34663;-57
2022/01/04 06:37:57;;;;;;;21.02;16.87;;;;;;;8.32;75.03;99789.41;5568721;32;34208;-57
2022/01/04 06:41:01;;;;;;;20.23;15.45;;;;;;;8.15;79.94;99781.00;5569710;32;33741;-57
2022/01/04 06:44:03;;;;;;;22.13;16.62;;;;;;;8.04;83.13;99787.47;5569093;32;34279;-58
2022/01/04 06:47:05;;;;;;;23.75;17.55;;;;;;;8.25;77.46;99783.59;5568762;32;34293;-57
2022/01/04 06:50:08;;;;;;;25.67;17.50;;;;;;;8.26;75.70;99779.84;5568729;32;33687;-58
2022/01/04 06:53:13;;;;;;;23.25;17.27;;;;;;;8.32;74.39;99781.41;5568183;32;33332;-57
2022/01/04 06:56:15;;;;;;;25.58;17.33;;;;;;;8.31;77.80;99760.31;5568816;32;33343;-58
2022/01/04 06:59:18;;;;;;;23.42;16.92;;;;;;;8.52;74.42;99766.31;5569399;32;33937;-57
2022/01/04 07:02:21;;;;;;;23.10;17.60;;;;;;;8.45;74.82;99764.75;5568148;32;34345;-57
2022/01/04 07:05:24;;;;;;;24.00;17.42;;;;;;;8.45;72.45;99761.31;5558312;32;33558;-57
2022/01/04 07:08:26;;;;;;;23.55;18.20;;;;;;;8.21;73.15;99747.84;5551476;32;33567;-57
2022/01/04 07:11:29;;;;;;;23.87;17.23;;;;;;;8.15;73.97;99756.97;5549886;32;33717;-57
2022/01/04 07:14:31;;;;;;;24.83;18.20;;;;;;;8.21;74.24;99756.66;5555471;32;33218;-57
2022/01/04 07:17:38;;;;;;;20.23;14.73;;;;;;;8.26;79.95;99755.03;5568656;31;30361;-57
2022/01/04 07:20:40;;;;;;;18.15;13.85;;;;;;;8.31;75.70;99771.00;5569237;32;34194;-57
2022/01/04 07:23:44;;;;;;;20.95;15.40;;;;;;;8.61;74.55;99776.12;5568679;32;33706;-57
2022/01/04 07:26:46;;;;;;;18.80;13.98;;;;;;;8.65;74.75;99771.78;5567993;32;33960;-57
2022/01/04 07:29:48;;;;;;;18.17;13.15;;;;;;;8.68;82.53;99781.13;5565303;32;33571;-58
2022/01/04 07:32:50;;;;;;;18.05;13.15;;;;;;;8.78;77.70;99781.03;5549983;32;33806;-57
2022/01/04 07:35:53;;;;;;;18.45;12.80;;;;;;;9.04;76.14;99780.75;5555578;32;33810;-57
2022/01/04 07:38:57;;;;;;;20.35;12.75;;;;;;;9.10;75.30;99777.72;5567243;32;33782;-57
2022/01/04 07:42:02;;;;;;;20.02;11.95;;;;;;;9.17;78.93;99775.53;5568664;32;33655;-57
2022/01/04 07:45:06;;;;;;;19.40;12.55;;;;;;;9.25;78.71;99770.63;5564163;32;33844;-57
2022/01/04 07:48:11;;;;;;;17.17;12.37;;;;;;;9.43;79.55;99769.06;5568864;32;33707;-57
2022/01/04 07:51:13;;;;;;;19.35;13.10;;;;;;;9.44;76.68;99765.28;5568965;32;33707;-57
2022/01/04 07:54:15;;;;;;;14.98;12.00;;;;;;;9.61;81.47;99749.56;5568053;32;33591;-57
2022/01/04 07:57:17;;;;;;;19.58;11.50;;;;;;;9.53;78.68;99752.88;5567671;32;33324;-57
2022/01/04 08:00:20;;;;;;;20.62;11.85;;;;;;;9.46;73.47;99742.53;5568883;32;33008;-57
2022/01/04 08:03:24;;;;;;;14.57;10.20;;;;;;;9.54;74.71;99730.41;5568329;32;34243;-57
2022/01/04 08:06:31;;;;;;;15.13;11.05;;;;;;;9.56;72.53;99728.22;5549548;32;34264;-57
2022/01/04 08:09:33;;;;;;;15.13;10.68;;;;;;;9.61;77.97;99723.59;5556471;32;34231;-57
2022/01/04 08:12:36;;;;;;;14.68;11.35;;;;;;;9.93;81.38;99719.37;5567580;32;33591;-57
2022/01/04 08:15:39;;;;;;;16.33;10.85;;;;;;;9.94;72.50;99722.88;5568678;32;34518;-57
2022/01/04 08:18:42;;;;;;;14.77;10.38;;;;;;;9.84;72.73;99718.47;5567773;32;33737;-57
2022/01/04 08:22:04;;;;;;;14.55;10.30;;;;;;;9.77;72.53;99700.09;5565524;32;34321;-57
2022/01/04 08:25:08;;;;;;;14.27;10.35;;;;;;;9.81;72.44;99711.00;5568856;32;33168;-57
2022/01/04 08:28:11;;;;;;;12.18;9.50;;;;;;;9.83;73.05;99698.09;5568683;32;34374;-57
2022/01/04 08:31:13;;;;;;;14.25;10.52;;;;;;;9.95;71.90;99692.31;5568328;32;33155;-57
2022/01/04 08:34:26;;;;;;;13.55;8.85;;;;;;;10.06;71.77;99688.37;5558332;32;34419;-57
2022/01/04 08:37:29;;;;;;;12.05;9.15;;;;;;;10.20;71.09;99691.09;5568325;32;34387;-57
2022/01/04 08:40:32;;;;;;;13.57;8.73;;;;;;;10.34;72.38;99678.56;5568505;32;33652;-57
2022/01/04 08:43:34;;;;;;;12.52;9.93;;;;;;;10.34;69.99;99679.34;5560744;32;33559;-57
2022/01/04 08:46:39;;;;;;;11.12;8.07;;;;;;;10.25;71.18;99688.31;5564892;32;34268;-57
2022/01/04 08:49:42;;;;;;;10.10;7.85;;;;;;;10.39;71.07;99696.41;5550977;32;33701;-57
2022/01/04 08:52:44;;;;;;;14.55;8.35;;;;;;;10.33;70.68;99682.31;5559660;32;33630;-57
2022/01/04 08:55:47;;;;;;;10.35;7.15;;;;;;;10.44;70.55;99672.22;5567012;32;33816;-57
2022/01/04 08:58:49;;;;;;;12.25;8.10;;;;;;;10.47;70.62;99668.97;5566533;32;33616;-57
2022/01/04 09:01:51;;;;;;;10.13;7.60;;;;;;;10.50;70.60;99682.56;5568152;32;34399;-58
2022/01/04 09:04:55;;;;;;;9.90;8.02;;;;;;;10.57;71.09;99671.44;5567863;32;33569;-57
2022/01/04 09:07:57;;;;;;;12.05;7.97;;;;;;;10.76;69.58;99658.75;5568031;32;33833;-57
2022/01/04 09:11:00;;;;;;;11.82;8.00;;;;;;;10.68;71.64;99650.59;5567786;32;33517;-57
2022/01/04 09:20:35;;;;;;;12.02;9.02;;;;;;;10.78;70.12;99650.37;5553384;32;33248;-57
2022/01/04 09:23:37;;;;;;;11.57;8.50;;;;;;;10.87;68.82;99653.16;5567137;32;33953;-58
2022/01/04 09:26:39;;;;;;;12.75;9.35;;;;;;;10.75;69.27;99635.69;5566901;32;33573;-57
2022/01/04 09:29:42;;;;;;;11.35;8.80;;;;;;;10.79;69.71;99631.34;5558567;32;33599;-57
2022/01/04 09:32:44;;;;;;;11.50;9.20;;;;;;;10.84;79.38;99637.69;5559738;32;33646;-57
2022/01/04 09:35:49;;;;;;;13.93;9.55;;;;;;;10.95;69.62;99621.06;5566211;32;33725;-57
2022/01/04 09:38:52;;;;;;;12.30;9.10;;;;;;;10.73;69.48;99621.81;5567207;32;33756;-57
2022/01/04 09:41:59;;;;;;;12.18;9.77;;;;;;;10.92;74.61;99607.47;5567135;32;34242;-57
2022/01/04 09:45:02;;;;;;;13.02;9.45;;;;;;;10.96;72.29;99593.16;5564761;32;33942;-57
2022/01/04 09:48:05;;;;;;;12.32;9.50;;;;;;;10.86;72.67;99595.25;5566459;31;34430;-57
2022/01/04 09:51:10;;;;;;;13.82;9.43;;;;;;;10.85;69.03;99588.31;5567849;32;33482;-57
2022/01/04 09:54:17;;;;;;;13.80;9.40;;;;;;;10.84;69.33;99587.53;5560396;32;34560;-58
2022/01/04 09:57:20;;;;;;;12.40;10.05;;;;;;;10.90;68.56;99572.91;5562796;32;33748;-57
2022/01/04 10:00:23;;;;;;;15.65;10.15;;;;;;;11.18;76.99;99556.72;5567209;32;33528;-57
2022/01/04 10:03:29;;;;;;;12.77;9.82;;;;;;;11.18;73.57;99546.78;5556764;32;33658;-57
2022/01/04 10:06:34;;;;;;;12.85;10.63;;;;;;;11.22;69.00;99534.34;5564040;32;34242;-57
2022/01/04 10:09:48;;;;;;;16.98;12.23;;;;;;;11.26;71.28;99518.47;5564459;32;33211;-57
2022/01/04 10:12:56;;;;;;;16.87;11.27;;;;;;;11.29;68.92;99532.06;5565372;32;33265;-57
2022/01/04 10:15:59;;;;;;;14.40;10.75;;;;;;;11.41;77.58;99519.97;5565669;32;33784;-57
2022/01/04 10:19:04;;;;;;;16.00;10.52;;;;;;;11.43;69.50;99526.63;5565756;32;34391;-57
2022/01/04 10:22:12;;;;;;;14.80;10.32;;;;;;;11.42;69.08;99502.75;5568867;32;33602;-57
2022/01/04 10:25:16;;;;;;;13.95;10.30;;;;;;;11.48;77.12;99509.59;5569129;32;33659;-57
2022/01/04 10:32:10;;;;;;;14.13;9.27;;;;;;;11.53;69.15;99512.16;5509291;31;33861;-57
2022/01/04 10:35:41;;;;;;;13.52;9.88;;;;;;;11.58;69.97;99503.16;5557028;32;32223;-57
2022/01/04 10:38:46;;;;;;;13.48;10.30;;;;;;;11.55;69.49;99503.78;5547480;32;34090;-58
2022/01/04 10:42:04;;;;;;;12.80;10.13;;;;;;;11.50;68.99;99496.66;5550178;32;34722;-57
2022/01/04 10:45:32;;;;;;;13.13;9.57;;;;;;;11.57;69.71;99480.91;5564695;32;32106;-57
2022/01/04 10:48:39;;;;;;;13.75;10.02;;;;;;;11.86;71.61;99483.13;5549653;32;33684;-57
2022/01/04 10:51:42;;;;;;;12.35;8.43;;;;;;;12.10;74.25;99482.72;5567053;32;34221;-57
2022/01/04 10:54:46;;;;;;;11.00;6.85;;;;;;;12.09;68.40;99491.91;5569203;32;33740;-57
2022/01/04 10:57:48;;;;;;;9.68;7.05;;;;;;;11.99;69.61;99484.91;5568534;32;33665;-57
2022/01/04 11:00:56;;;;;;;8.57;6.32;;;;;;;12.26;72.52;99476.91;5567831;32;33272;-57
2022/01/04 11:04:01;;;;;;;7.37;6.43;;;;;;;12.27;68.95;99471.22;5567519;32;34392;-57
2022/01/04 11:07:03;;;;;;;11.00;6.03;;;;;;;12.34;69.26;99465.38;5568328;32;33680;-57
2022/01/04 11:10:06;;;;;;;8.73;6.05;;;;;;;12.46;70.40;99454.81;5566345;32;33301;-58
2022/01/04 11:13:09;;;;;;;7.53;5.57;;;;;;;12.69;75.68;99442.81;5566898;32;33640;-57
2022/01/04 11:16:11;;;;;;;8.27;6.45;;;;;;;12.79;70.64;99439.00;5568905;32;33660;-57
2022/01/04 11:19:19;;;;;;;8.30;6.30;;;;;;;12.62;68.90;99434.41;5568701;32;33791;-58
2022/01/04 11:22:21;;;;;;;10.20;6.62;;;;;;;12.47;68.10;99421.44;5569021;32;34101;-57
2022/01/04 11:25:23;;;;;;;7.82;5.90;;;;;;;12.62;68.34;99430.94;5568971;32;33198;-57
2022/01/04 11:28:27;;;;;;;7.50;5.72;;;;;;;12.73;76.10;99418.75;5568868;32;34331;-57
2022/01/04 11:31:48;;;;;;;8.50;6.10;;;;;;;12.88;68.34;99415.59;5561229;32;34348;-58
2022/01/04 11:35:03;;;;;;;7.82;5.62;;;;;;;12.56;69.71;99400.72;5567567;32;34895;-57
2022/01/04 11:38:05;;;;;;;7.55;5.78;;;;;;;12.52;68.71;99407.84;5560419;32;33624;-57
2022/01/04 11:41:08;;;;;;;8.93;5.97;;;;;;;12.45;70.19;99410.22;5555642;32;33754;-57
2022/01/04 11:44:19;;;;;;;11.95;6.28;;;;;;;12.59;75.98;99402.00;5553888;32;34280;-58
2022/01/04 11:47:27;;;;;;;7.45;5.45;;;;;;;12.58;69.41;99387.78;5553234;32;34233;-58
2022/01/04 11:50:36;;;;;;;7.75;5.50;;;;;;;12.59;68.87;99372.44;5568870;32;33687;-57
2022/01/04 11:53:38;;;;;;;9.02;5.30;;;;;;;12.71;70.24;99359.09;5568409;32;33357;-58
2022/01/04 11:56:56;;;;;;;8.80;5.35;;;;;;;12.81;69.27;99366.06;5555574;32;34107;-57
2022/01/04 12:00:02;;;;;;;8.25;5.60;;;;;;;12.85;67.81;99362.44;5558762;32;33555;-57
2022/01/04 12:03:15;;;;;;;9.13;5.70;;;;;;;12.86;68.72;99358.63;5560266;32;34147;-58
2022/01/04 12:06:35;;;;;;;8.90;5.87;;;;;;;12.78;72.49;99351.38;5567680;32;34190;-58
2022/01/04 12:09:37;;;;;;;7.95;6.10;;;;;;;12.68;67.41;99355.19;5566856;32;33788;-57
2022/01/04 12:12:56;;;;;;;8.10;5.37;;;;;;;12.57;68.08;99350.44;5567455;32;33246;-57
2022/01/04 12:16:08;;;;;;;7.00;5.22;;;;;;;12.53;68.63;99354.88;5568722;32;34455;-57
2022/01/04 12:19:15;;;;;;;6.70;5.15;;;;;;;12.54;77.45;99346.47;5553286;32;33585;-57
2022/01/04 12:22:32;;;;;;;8.68;5.15;;;;;;;12.62;68.43;99345.69;5553993;32;33690;-57
2022/01/04 12:25:37;;;;;;;8.60;5.78;;;;;;;12.65;68.29;99361.19;5565767;32;33832;-57
2022/01/04 12:28:58;;;;;;;9.60;6.72;;;;;;;12.60;69.44;99355.19;5556361;32;33655;-57
2022/01/04 12:32:04;;;;;;;10.15;6.62;;;;;;;12.74;74.04;99352.31;5562217;32;33699;-58
2022/01/04 12:35:08;;;;;;;7.95;5.65;;;;;;;12.72;68.14;99338.41;5563632;32;33326;-57
2022/01/04 12:38:10;;;;;;;10.25;5.40;;;;;;;12.62;68.13;99340.31;5567233;31;34284;-57
2022/01/04 12:41:14;;;;;;;8.70;6.20;;;;;;;12.55;70.32;99340.03;5568575;32;34297;-58
2022/01/04 12:44:25;;;;;;;8.13;5.25;;;;;;;12.56;69.68;99335.44;5559737;32;33713;-57
2022/01/04 12:47:28;;;;;;;9.43;6.07;;;;;;;12.59;69.24;99315.97;5548445;32;33686;-57
2022/01/04 12:50:31;;;;;;;7.70;5.55;;;;;;;12.61;70.62;99305.66;5559345;32;33363;-58
2022/01/04 12:53:37;;;;;;;8.43;6.07;;;;;;;12.74;70.03;99309.28;5563630;32;33693;-58
2022/01/04 12:56:49;;;;;;;11.75;6.00;;;;;;;12.77;69.65;99303.28;5561083;32;33750;-57
2022/01/04 12:59:56;;;;;;;10.45;5.50;;;;;;;12.65;68.43;99303.94;5567444;32;33613;-58
2022/01/04 13:02:59;;;;;;;9.80;6.15;;;;;;;12.87;71.60;99292.16;5565270;32;33900;-58
2022/01/04 13:06:04;;;;;;;9.30;6.20;;;;;;;12.81;70.30;99290.75;5567824;32;33620;-58
2022/01/04 13:09:06;;;;;;;10.10;6.00;;;;;;;13.00;69.91;99287.69;5567769;32;33584;-58
2022/01/04 13:12:08;;;;;;;9.15;5.93;;;;;;;13.02;70.16;99283.56;5567835;32;33640;-57
2022/01/04 13:15:14;;;;;;;9.77;6.20;;;;;;;13.08;72.33;99293.03;5567487;32;33705;-58
2022/01/04 13:18:26;;;;;;;8.90;6.50;;;;;;;12.99;75.68;99284.22;5567805;32;33655;-57
2022/01/04 13:21:29;;;;;;;10.60;6.50;;;;;;;13.05;67.95;99266.00;5567863;32;33665;-57
2022/01/04 13:24:36;;;;;;;8.82;6.00;;;;;;;12.96;68.94;99262.56;5569525;32;34174;-58
2022/01/04 13:27:40;;;;;;;10.13;6.60;;;;;;;12.81;68.18;99264.63;5565302;32;33632;-58
2022/01/04 13:30:46;;;;;;;8.75;5.82;;;;;;;12.81;69.69;99269.25;5570185;32;33696;-58
2022/01/04 13:33:53;;;;;;;8.82;5.95;;;;;;;12.88;74.52;99274.91;5569372;32;34381;-58
2022/01/04 13:36:55;;;;;;;7.37;5.82;;;;;;;12.96;71.01;99279.47;5550905;32;35206;-57
2022/01/04 13:40:03;;;;;;;8.15;6.20;;;;;;;13.18;73.29;99275.75;5550427;32;34413;-57
2022/01/04 13:43:29;;;;;;;9.63;6.05;;;;;;;13.28;75.17;99274.63;5566681;32;34243;-58
2022/01/04 13:46:36;;;;;;;14.18;12.23;;;;;;;13.21;67.78;99269.72;5564260;31;33190;-58
2022/01/04 13:49:39;;;;;;;13.48;8.90;;;;;;;13.11;68.94;99262.00;5569561;32;34417;-58
2022/01/04 13:52:53;;;;;;;17.80;13.35;;;;;;;13.10;69.35;99260.41;5570421;32;33155;-58
2022/01/04 13:56:06;;;;;;;30.83;24.80;;;;;;;13.23;73.61;99272.09;5570232;32;34427;-58
2022/01/04 13:59:19;;;;;;;18.65;14.45;;;;;;;13.28;68.74;99277.31;5570198;32;33769;-58
2022/01/04 14:02:26;;;;;;;12.52;9.18;;;;;;;13.35;69.19;99270.31;5567961;32;33655;-58
2022/01/04 14:05:36;;;;;;;9.60;5.45;;;;;;;13.27;75.86;99264.97;5564100;32;33336;-57
2022/01/04 14:08:48;;;;;;;11.05;6.85;;;;;;;13.25;72.15;99268.00;5569184;32;33591;-58
2022/01/04 14:11:55;;;;;;;8.15;5.87;;;;;;;13.60;76.57;99254.31;5570180;32;33689;-57
2022/01/04 14:14:58;;;;;;;;;;;;;;;13.59;70.62;99248.13;5570527;32;33577;-58
2022/01/04 14:18:10;;;;;;;9.77;6.32;;;;;;;13.46;67.32;99248.38;5569596;32;34633;-58
2022/01/04 14:21:12;;;;;;;8.75;6.20;;;;;;;13.40;67.99;99247.78;5569316;32;34643;-58
2022/01/04 14:24:33;;;;;;;8.18;5.78;;;;;;;13.51;68.58;99240.91;5569683;32;34679;-58
2022/01/04 14:27:39;;;;;;;10.50;5.65;;;;;;;13.52;66.93;99247.88;5569687;32;34604;-58
2022/01/04 14:30:43;;;;;;;10.65;6.60;;;;;;;13.48;67.07;99235.41;5569636;32;33639;-58
2022/01/04 14:33:45;;;;;;;8.68;5.68;;;;;;;13.41;66.78;99241.31;5569561;32;33609;-57
2022/01/04 14:36:48;;;;;;;8.95;5.68;;;;;;;13.30;66.96;99242.78;5569978;32;34343;-58
2022/01/04 14:39:51;;;;;;;9.55;4.80;;;;;;;13.39;66.15;99227.38;5569041;32;34323;-58
2022/01/04 14:42:54;;;;;;;9.27;5.47;;;;;;;13.44;67.90;99224.47;5569407;32;34329;-57
2022/01/04 14:45:56;;;;;;;11.65;5.60;;;;;;;13.50;65.59;99209.69;5569312;32;34233;-57
2022/01/04 14:48:59;;;;;;;9.73;5.57;;;;;;;13.54;66.18;99199.88;5569285;32;34376;-57
2022/01/04 14:52:03;;;;;;;9.30;5.20;;;;;;;13.44;65.85;99199.47;5568924;32;33971;-57
2022/01/04 14:55:06;;;;;;;9.48;5.22;;;;;;;13.46;65.81;99206.09;5568534;32;34035;-57
2022/01/04 14:58:09;;;;;;;6.95;4.75;;;;;;;13.51;65.30;99226.63;5569124;32;33701;-57
2022/01/04 15:01:11;;;;;;;10.75;5.03;;;;;;;13.53;65.08;99225.22;5569424;32;34467;-57
2022/01/04 15:04:14;;;;;;;8.77;5.25;;;;;;;13.57;67.03;99225.34;5568849;32;33693;-57
2022/01/04 15:07:16;;;;;;;15.20;5.95;;;;;;;13.58;68.80;99222.34;5569400;32;34428;-56
2022/01/04 15:10:18;;;;;;;14.05;5.57;;;;;;;13.62;65.05;99231.31;5567902;32;33728;-57
2022/01/04 15:13:21;;;;;;;8.27;5.37;;;;;;;13.53;65.11;99240.56;5568660;32;33181;-57
2022/01/04 15:16:26;;;;;;;11.20;6.15;;;;;;;13.65;67.99;99240.66;5569020;32;34269;-57
2022/01/04 15:19:28;;;;;;;9.88;5.82;;;;;;;13.60;65.00;99227.38;5568521;32;33583;-57
2022/01/04 15:22:36;;;;;;;7.50;5.03;;;;;;;13.55;65.38;99247.22;5568530;32;34002;-56
2022/01/04 15:25:38;;;;;;;8.82;5.93;;;;;;;13.63;64.91;99245.56;5568630;32;33668;-57
2022/01/04 15:28:42;;;;;;;11.48;5.50;;;;;;;13.65;65.73;99235.28;5569262;32;34286;-57
2022/01/04 15:31:44;;;;;;;7.87;5.50;;;;;;;13.82;65.42;99220.88;5568383;32;33729;-57
2022/01/04 15:34:46;;;;;;;9.15;5.72;;;;;;;13.72;66.18;99197.03;5569547;32;34298;-57
2022/01/04 15:37:49;;;;;;;8.15;5.00;;;;;;;13.59;64.85;99190.81;5569182;31;33513;-57
2022/01/04 15:40:52;;;;;;;9.77;5.45;;;;;;;13.46;64.78;99208.00;5566604;32;33621;-57
2022/01/04 15:43:54;;;;;;;8.77;5.90;;;;;;;13.66;67.88;99187.59;5566798;32;33274;-57
2022/01/04 15:46:56;;;;;;;10.70;5.95;;;;;;;13.52;65.62;99180.56;5567877;32;34063;-57
2022/01/04 15:49:59;;;;;;;12.40;5.95;;;;;;;13.52;70.16;99175.16;5567352;32;33853;-57
2022/01/04 15:53:01;;;;;;;11.12;6.55;;;;;;;13.47;66.42;99175.34;5569382;32;34288;-57
2022/01/04 15:56:04;;;;;;;10.07;5.72;;;;;;;13.44;65.14;99156.38;5569223;32;33678;-57
2022/01/04 15:59:06;;;;;;;8.55;5.78;;;;;;;13.34;65.63;99155.69;5569264;32;33752;-57
2022/01/04 16:02:08;;;;;;;7.85;5.18;;;;;;;13.24;65.58;99166.00;5569034;32;33662;-57
2022/01/04 16:05:11;;;;;;;7.80;5.53;;;;;;;13.10;66.09;99158.97;5569304;32;34362;-57
2022/01/04 16:08:13;;;;;;;7.47;4.62;;;;;;;13.03;68.58;99144.47;5569260;32;33663;-57
2022/01/04 16:11:16;;;;;;;8.05;5.15;;;;;;;13.11;67.21;99144.41;5569310;32;33745;-57
2022/01/04 16:14:18;;;;;;;7.82;4.62;;;;;;;13.07;68.53;99150.75;5569145;32;33664;-57
2022/01/04 16:23:52;;;;;;;8.55;5.20;;;;;;;13.33;75.24;99137.94;5569012;32;33601;-57
2022/01/04 16:26:56;;;;;;;9.38;5.65;;;;;;;13.34;65.87;99136.03;5568961;32;33620;-57
2022/01/04 16:30:00;;;;;;;9.25;5.78;;;;;;;13.24;66.14;99144.47;5569145;32;33622;-57
2022/01/04 16:33:07;;;;;;;10.75;5.82;;;;;;;13.20;66.29;99143.56;5569057;32;33735;-57
2022/01/04 16:36:09;;;;;;;8.18;5.15;;;;;;;13.29;69.38;99149.69;5569000;32;33608;-57
2022/01/04 16:39:21;;;;;;;8.25;5.50;;;;;;;13.34;70.94;99142.22;5568969;32;34312;-57
2022/01/04 16:42:24;;;;;;;7.18;5.00;;;;;;;13.26;67.35;99140.37;5568834;32;34412;-57
2022/01/04 16:45:26;;;;;;;8.43;6.10;;;;;;;13.32;71.54;99155.22;5568953;32;34416;-57
2022/01/04 16:48:28;;;;;;;7.93;6.00;;;;;;;13.22;70.32;99158.28;5568950;32;33617;-57
2022/01/04 16:51:31;;;;;;;12.35;7.20;;;;;;;13.42;70.91;99161.31;5568879;32;33721;-57
2022/01/04 16:54:35;;;;;;;8.35;5.90;;;;;;;13.30;66.27;99162.03;5568856;32;34532;-57
